Airfield :
LOGIN :

Register | Disclaimer

   EN    FR    IT 

 










Legend :    VFR   Marginal VFR   IFR   Intensive IFR   Very Intensive IFR
Visi :
Ceiling :
>= 8 km
>= 3000ft
5 to 8 km
1000 to 3000 ft
1500m to 5 km
500 to 1000 ft
800 to 1500m
200 to 500 ft
< 800m
< 200 ft
Symbols :   Thunderstorms  Fog  Heavy snow  Heavy precipitations  Wind > 20 kt
SIGMETs :     Misc.  Thunderstorms  Icing  Turbulence  Mountain Waves  Volcanic Ashes






- Airport Elevation : 157 ft
- IATA code : LIL


LFQQ - Lille Lesquin

CURRENT METAR :
  • 191230Z AUTO VRB05KT 9999 SCT038 SCT064 BKN086 14/05 Q1020 TEMPO 4000 SHRA BKN030TCU

EXPIRED METARs :
  • 191200Z AUTO 28004KT 190V350 CAVOK 14/06 Q1020 TEMPO 4000 SHRA BKN030TCU
  • 191130Z AUTO 30005KT 260V350 CAVOK 13/05 Q1020 TEMPO 4000 SHRA BKN030TCU
  • 191100Z AUTO 27005KT 230V320 CAVOK 12/05 Q1020 TEMPO 4000 SHRA BKN040TCU
  • 191030Z AUTO 27007KT 250V310 CAVOK 12/06 Q1021 TEMPO 4000 SHRA BKN040TCU
  • 191000Z AUTO 27006KT 230V320 CAVOK 11/05 Q1021 NOSIG

TAF TAF LFQQ
Valid from the 19 at 12:00 until the 20 at 18:00 UTC


191100Z 1912/2018 34010KT 9999 SCT040
PROB30
TEMPO 1913/1917 4000 SHRA BKN030TCU
BECMG 1922/2001 VRB02KT 0200 FG VV///
BECMG 2006/2009 9999 NSW BKN006
BECMG 2009/2011 SCT030
PROB30
TEMPO 2013/2018 4000 SHRA BKN030TCU
ATIS : +33 3 20 16 19 54



MET'MAP, your aeronautical weather chart ! - Copyright ORBIFLY December 2007 - Disclaimer

ORBIFLY MET'MAP TEAM :

Programming & Development : Alexandra Zaïnal
Concept & original design : Baudouin d'Aumeries
Assistance for programming : Marc-Olivier Méhu
Technical & hardware support : Manuel Goepfert

Contact : metmap@orbifly.com




SOURCES & CREDITS :

   NOAA